Time;durP1;ratioP1;P1;durP2;ratioP2;P2;SDS_P1;SDS_P2;PMS_P1;PMS_P2;Temp;Humidity;BMP_temperature;BMP_pressure;BME280_temperature;BME280_humidity;BME280_pressure;Samples;Min_cycle;Max_cycle;Signal;HPM_P1;HPM_P2
2024/01/19 00:01:11;;;;;;;3.55;2.08;;;;;;;18.81;38.86;101253.88;4894780;28;110422;-73
2024/01/19 00:03:37;;;;;;;3.17;2.00;;;;;;;18.82;38.88;101271.50;4896727;28;97268;-73
2024/01/19 00:06:02;;;;;;;3.00;1.42;;;;;;;18.82;38.77;101270.59;4895886;28;97495;-73
2024/01/19 00:08:27;;;;;;;2.60;1.27;;;;;;;18.80;38.83;101264.44;4895734;28;97157;-73
2024/01/19 00:10:53;;;;;;;2.88;1.30;;;;;;;18.81;38.48;101263.53;4894716;28;126872;-73
2024/01/19 00:13:18;;;;;;;3.97;1.30;;;;;;;18.81;38.59;101260.91;4897490;28;98672;-73
2024/01/19 00:15:44;;;;;;;3.17;1.83;;;;;;;18.80;38.71;101260.00;4895589;28;96810;-73
2024/01/19 00:18:10;;;;;;;2.72;1.75;;;;;;;18.80;38.95;101257.38;4896269;28;107168;-73
2024/01/19 00:20:36;;;;;;;4.57;2.08;;;;;;;18.80;38.75;101252.06;4895288;28;96818;-73
2024/01/19 00:23:01;;;;;;;2.67;1.65;;;;;;;18.80;38.56;101251.22;4894286;28;112328;-73
2024/01/19 00:25:26;;;;;;;3.33;1.63;;;;;;;18.79;38.80;101242.41;4899508;28;97000;-73
2024/01/19 00:27:52;;;;;;;3.53;1.60;;;;;;;18.80;38.77;101246.78;4917663;28;97681;-72
2024/01/19 00:30:17;;;;;;;3.60;2.00;;;;;;;18.79;38.50;101244.19;4914973;28;127399;-73
2024/01/19 00:32:42;;;;;;;3.03;1.40;;;;;;;18.80;38.68;101264.44;4917663;28;97658;-73
2024/01/19 00:35:08;;;;;;;3.03;2.05;;;;;;;18.80;38.47;101262.66;4912118;28;97671;-73
2024/01/19 00:37:34;;;;;;;3.05;1.60;;;;;;;18.80;38.75;101264.44;4917206;28;96850;-73
2024/01/19 00:39:59;;;;;;;2.92;1.23;;;;;;;18.79;38.70;101267.97;4911802;28;98244;-73
2024/01/19 00:42:25;;;;;;;3.30;1.63;;;;;;;18.79;38.48;101267.97;4917481;28;98028;-73
2024/01/19 00:44:50;;;;;;;2.38;1.13;;;;;;;18.79;38.57;101271.50;4916806;28;97543;-73
2024/01/19 00:47:16;;;;;;;3.05;2.15;;;;;;;18.79;38.87;101274.13;4913202;28;116749;-73
2024/01/19 00:49:42;;;;;;;2.10;1.30;;;;;;;18.80;38.61;101275.00;4914335;28;96840;-73
2024/01/19 00:52:07;;;;;;;3.20;1.27;;;;;;;18.80;38.67;101275.88;4907137;28;98657;-73
2024/01/19 00:54:33;;;;;;;2.40;1.25;;;;;;;18.79;38.58;101278.56;4914154;28;96800;-73
2024/01/19 00:56:58;;;;;;;2.70;1.70;;;;;;;18.78;38.47;101284.72;4916464;28;103734;-73
2024/01/19 00:59:23;;;;;;;3.53;1.70;;;;;;;18.79;38.56;101297.06;4915860;28;99628;-73
2024/01/19 01:01:49;;;;;;;3.00;1.20;;;;;;;18.79;38.61;101311.13;4913709;28;97273;-73
2024/01/19 01:04:14;;;;;;;3.78;1.63;;;;;;;18.79;38.66;101319.06;4899090;28;98202;-73
2024/01/19 01:06:40;;;;;;;2.78;1.33;;;;;;;18.79;38.42;101332.28;4904436;28;115976;-73
2024/01/19 01:09:05;;;;;;;3.53;1.83;;;;;;;18.79;38.68;101331.41;4915538;28;116577;-73
2024/01/19 01:11:31;;;;;;;2.75;1.65;;;;;;;18.78;38.29;101324.38;4914822;28;106420;-73
2024/01/19 01:13:57;;;;;;;3.10;1.30;;;;;;;18.79;38.56;101327.00;4915568;28;98068;-73
2024/01/19 01:16:23;;;;;;;2.35;1.17;;;;;;;18.79;38.29;101320.84;4918966;28;97377;-73
2024/01/19 01:18:48;;;;;;;2.65;1.45;;;;;;;18.78;38.69;101327.88;4914457;28;96819;-73
2024/01/19 01:21:13;;;;;;;2.78;1.55;;;;;;;18.78;38.60;101319.94;4916380;28;97471;-73
2024/01/19 01:23:39;;;;;;;2.72;1.70;;;;;;;18.78;38.57;101333.16;4891390;28;96912;-73
2024/01/19 01:26:04;;;;;;;2.60;1.23;;;;;;;18.78;38.53;101322.59;4913013;28;97603;-73
2024/01/19 01:28:31;;;;;;;3.10;1.25;;;;;;;18.78;38.43;101325.22;4912491;28;97484;-73
2024/01/19 01:30:56;;;;;;;2.45;1.42;;;;;;;18.79;38.48;101328.78;4912650;28;99444;-72
2024/01/19 01:33:22;;;;;;;2.45;1.17;;;;;;;18.77;38.47;101328.78;4910552;28;99130;-73
2024/01/19 01:35:47;;;;;;;3.22;1.92;;;;;;;18.78;38.30;101337.56;4914274;28;97734;-73
2024/01/19 01:38:12;;;;;;;2.40;1.67;;;;;;;18.77;38.63;101334.06;4899118;28;97451;-73
2024/01/19 01:40:38;;;;;;;3.05;1.90;;;;;;;18.77;38.38;101312.94;4915538;28;106282;-73
2024/01/19 01:43:06;;;;;;;2.83;1.25;;;;;;;18.77;38.34;101317.31;4911659;28;97275;-73
2024/01/19 01:45:31;;;;;;;2.63;1.73;;;;;;;18.76;38.39;101326.16;4913271;28;97639;-73
2024/01/19 01:47:58;;;;;;;2.85;1.60;;;;;;;18.78;38.53;101340.22;4913044;28;97451;-72
2024/01/19 01:50:24;;;;;;;3.35;1.55;;;;;;;18.76;38.25;101337.59;4915384;28;97182;-73
2024/01/19 01:52:54;;;;;;;2.53;1.65;;;;;;;18.77;38.28;101330.53;4913455;28;100520;-73
2024/01/19 01:55:19;;;;;;;2.38;1.63;;;;;;;18.75;38.28;101335.88;4913479;28;96914;-73
2024/01/19 01:57:46;;;;;;;2.65;1.23;;;;;;;18.77;38.10;101342.00;4901547;28;98358;-73
2024/01/19 02:00:14;;;;;;;2.70;1.88;;;;;;;18.76;38.23;101337.59;4916287;28;96907;-73
2024/01/19 02:02:40;;;;;;;3.05;1.60;;;;;;;18.76;38.28;101339.38;4915813;28;97148;-73
2024/01/19 02:05:05;;;;;;;2.20;1.45;;;;;;;18.76;38.35;101331.44;4913554;28;98630;-73
2024/01/19 02:07:31;;;;;;;3.35;1.45;;;;;;;18.76;38.23;101339.38;4896454;28;99551;-73
2024/01/19 02:09:58;;;;;;;2.45;1.02;;;;;;;18.76;38.04;101342.88;4911459;28;99921;-73
2024/01/19 02:12:24;;;;;;;2.20;1.17;;;;;;;18.76;38.32;101342.00;4914304;28;96880;-73
2024/01/19 02:14:50;;;;;;;2.20;1.50;;;;;;;18.76;38.30;101348.16;4912939;28;97278;-73
2024/01/19 02:17:15;;;;;;;2.55;1.60;;;;;;;18.77;38.06;101355.22;4912321;28;126700;-73
2024/01/19 02:19:40;;;;;;;2.58;1.55;;;;;;;18.75;37.98;101357.00;4913340;28;108077;-73
2024/01/19 02:22:06;;;;;;;2.63;1.27;;;;;;;18.75;38.07;101367.56;4913292;28;99662;-74
2024/01/19 02:24:33;;;;;;;2.40;1.50;;;;;;;18.75;38.00;101371.97;4913710;28;96886;-73
2024/01/19 02:27:00;;;;;;;3.28;1.70;;;;;;;18.74;38.32;101373.75;4914715;28;97480;-73
2024/01/19 02:29:25;;;;;;;2.72;1.52;;;;;;;18.75;38.26;101372.84;4911138;28;98277;-73
2024/01/19 02:31:51;;;;;;;2.08;1.23;;;;;;;18.74;38.28;101371.09;4914555;28;115738;-73
2024/01/19 02:34:17;;;;;;;3.80;1.17;;;;;;;18.75;38.35;101378.16;4916370;28;96999;-73
2024/01/19 02:36:42;;;;;;;2.78;1.33;;;;;;;18.74;38.16;101379.03;4911369;28;97533;-73
2024/01/19 02:39:08;;;;;;;3.65;2.10;;;;;;;18.75;38.00;101377.25;4911524;28;97296;-72
2024/01/19 02:41:33;;;;;;;2.25;1.60;;;;;;;18.74;38.28;101380.81;4911876;28;98788;-73
2024/01/19 02:43:59;;;;;;;2.75;1.13;;;;;;;18.74;37.95;101384.31;4913444;28;105460;-73
2024/01/19 02:46:24;;;;;;;2.75;1.85;;;;;;;18.75;38.04;101393.09;4910956;28;103843;-73
2024/01/19 02:48:49;;;;;;;2.58;1.42;;;;;;;18.74;38.32;101402.81;4909039;28;110436;-73
2024/01/19 02:51:15;;;;;;;4.18;1.67;;;;;;;18.74;38.16;101402.81;4914568;28;116836;-73
2024/01/19 02:53:40;;;;;;;2.70;1.23;;;;;;;18.72;37.76;101401.97;4897548;28;99210;-74
2024/01/19 02:56:06;;;;;;;2.95;1.85;;;;;;;18.74;38.05;101408.09;4911306;28;127032;-73
2024/01/19 02:58:31;;;;;;;2.10;1.60;;;;;;;18.74;38.03;101405.44;4894240;28;97785;-74
2024/01/19 03:00:59;;;;;;;2.25;1.75;;;;;;;18.73;38.08;101401.03;4897784;28;97485;-73
2024/01/19 03:03:24;;;;;;;2.78;1.65;;;;;;;18.74;37.88;101402.81;4914698;28;97018;-73
2024/01/19 03:05:50;;;;;;;3.15;1.70;;;;;;;18.73;38.26;101408.97;4911626;28;97562;-73
2024/01/19 03:08:15;;;;;;;3.35;1.70;;;;;;;18.73;37.93;101416.03;4908228;28;97683;-74
2024/01/19 03:10:40;;;;;;;2.50;1.70;;;;;;;18.74;37.91;101412.50;4912892;28;110951;-73
2024/01/19 03:13:06;;;;;;;2.33;1.67;;;;;;;18.72;38.00;101399.31;4915072;28;110481;-73
2024/01/19 03:15:31;;;;;;;2.50;1.60;;;;;;;18.72;38.05;101406.38;4910547;28;127018;-73
2024/01/19 03:17:56;;;;;;;2.47;1.30;;;;;;;18.74;38.06;101404.59;4912483;28;115450;-73
2024/01/19 03:20:22;;;;;;;3.22;2.13;;;;;;;18.72;37.93;101399.31;4913866;28;96719;-74
2024/01/19 03:22:47;;;;;;;2.83;1.02;;;;;;;18.71;37.76;101400.19;4912001;28;117442;-73
2024/01/19 03:25:12;;;;;;;2.15;1.45;;;;;;;18.71;37.63;101402.84;4910473;28;126740;-73
2024/01/19 03:27:38;;;;;;;3.58;1.23;;;;;;;18.72;37.85;101409.03;4909699;28;98218;-73
2024/01/19 03:30:04;;;;;;;2.10;1.45;;;;;;;18.72;37.92;101409.88;4914167;28;97176;-73
2024/01/19 03:32:29;;;;;;;2.80;1.80;;;;;;;18.72;37.72;101409.88;4916755;28;96975;-73
2024/01/19 03:34:54;;;;;;;3.28;1.80;;;;;;;18.72;37.88;101411.66;4913285;28;124820;-73
2024/01/19 03:37:20;;;;;;;1.80;1.17;;;;;;;18.71;38.09;101413.41;4913302;28;110303;-73
2024/01/19 03:39:45;;;;;;;2.70;1.88;;;;;;;18.72;37.84;101411.66;4915202;28;96967;-73
2024/01/19 03:42:11;;;;;;;3.53;1.15;;;;;;;18.72;37.81;101409.88;4915108;28;97837;-74
2024/01/19 03:44:36;;;;;;;2.80;1.25;;;;;;;18.71;37.79;101405.47;4911014;28;99814;-73
2024/01/19 03:47:02;;;;;;;3.20;2.00;;;;;;;18.71;37.72;101402.84;4916938;28;117809;-73
2024/01/19 03:49:27;;;;;;;2.35;1.83;;;;;;;18.72;37.85;101406.38;4916488;28;97098;-74
2024/01/19 03:52:04;;;;;;;2.22;1.35;;;;;;;18.71;37.62;101407.25;4910385;28;101058;-73
2024/01/19 03:54:32;;;;;;;2.75;1.88;;;;;;;18.70;37.58;101409.03;4912641;28;99255;-73
2024/01/19 03:56:59;;;;;;;3.47;1.52;;;;;;;18.70;37.67;101409.03;4898310;28;99122;-73
2024/01/19 03:59:24;;;;;;;2.10;1.40;;;;;;;18.71;37.63;101417.81;4910703;28;96852;-73
2024/01/19 04:01:50;;;;;;;3.25;1.80;;;;;;;18.71;37.87;101423.09;4898344;28;97196;-73
2024/01/19 04:04:16;;;;;;;3.15;1.38;;;;;;;18.70;37.60;101419.59;4916797;28;98482;-74
2024/01/19 04:06:42;;;;;;;2.30;1.45;;;;;;;18.70;37.58;101422.25;4897898;28;97132;-73
2024/01/19 04:09:07;;;;;;;2.47;1.70;;;;;;;18.70;37.97;101416.97;4914221;28;96981;-73
2024/01/19 04:11:36;;;;;;;2.08;1.02;;;;;;;18.70;37.76;101430.16;4917380;28;97052;-73
2024/01/19 04:14:03;;;;;;;2.38;1.50;;;;;;;18.70;37.67;101435.47;4916399;28;98291;-73
2024/01/19 04:16:28;;;;;;;2.47;1.15;;;;;;;18.70;37.59;101446.03;4915757;28;96850;-74
2024/01/19 04:18:54;;;;;;;3.17;1.40;;;;;;;18.71;37.80;101444.25;4914124;28;96749;-74
2024/01/19 04:21:19;;;;;;;1.90;1.20;;;;;;;18.70;37.85;101445.13;4915990;28;97105;-73
2024/01/19 04:23:47;;;;;;;2.53;1.60;;;;;;;18.69;37.60;101444.25;4910882;28;121471;-74
2024/01/19 04:26:12;;;;;;;2.83;1.23;;;;;;;18.69;37.54;101446.91;4915101;28;97458;-73
2024/01/19 04:28:39;;;;;;;2.72;1.67;;;;;;;18.70;37.67;101443.38;4898648;28;96961;-73
2024/01/19 04:31:05;;;;;;;2.35;1.13;;;;;;;18.70;37.50;101448.66;4915012;28;96920;-74
2024/01/19 04:33:31;;;;;;;3.08;1.75;;;;;;;18.70;37.78;101453.06;4914377;28;96768;-73
2024/01/19 04:35:56;;;;;;;2.83;1.95;;;;;;;18.69;37.38;101456.63;4909412;28;127255;-73
2024/01/19 04:38:21;;;;;;;2.88;1.90;;;;;;;18.70;37.41;101468.91;4913468;28;98837;-73
2024/01/19 04:40:47;;;;;;;2.13;1.58;;;;;;;18.69;37.77;101467.19;4912205;28;98479;-73
2024/01/19 04:43:13;;;;;;;2.35;1.55;;;;;;;18.69;37.33;101473.31;4911781;28;99865;-73
2024/01/19 04:45:38;;;;;;;4.13;1.80;;;;;;;18.68;37.56;101471.59;4915861;28;103160;-74
2024/01/19 04:48:04;;;;;;;3.15;1.42;;;;;;;18.69;37.61;101475.09;4917094;28;97183;-74
2024/01/19 04:50:29;;;;;;;2.80;1.60;;;;;;;18.69;37.50;101483.91;4916968;28;96869;-74
2024/01/19 04:52:54;;;;;;;2.65;2.05;;;;;;;18.69;37.63;101489.19;4913545;28;108813;-74
2024/01/19 04:55:20;;;;;;;3.67;1.33;;;;;;;18.69;37.72;101489.19;4915757;28;97094;-73
2024/01/19 04:57:46;;;;;;;2.65;1.50;;;;;;;18.69;37.58;101488.31;4913803;28;97128;-73
2024/01/19 05:00:12;;;;;;;2.17;1.02;;;;;;;18.68;37.66;101490.09;4914019;28;98754;-74
2024/01/19 05:02:37;;;;;;;2.53;1.25;;;;;;;18.68;37.66;101492.75;4915199;28;97530;-74
2024/01/19 05:05:03;;;;;;;2.20;1.63;;;;;;;18.68;37.38;101495.38;4896361;28;130032;-73
2024/01/19 05:07:29;;;;;;;3.83;1.92;;;;;;;18.69;37.67;101488.31;4896963;28;97292;-74
2024/01/19 05:09:54;;;;;;;3.00;1.42;;;;;;;18.68;37.36;101497.13;4907424;28;97730;-74
2024/01/19 05:12:20;;;;;;;2.78;1.55;;;;;;;18.68;37.56;101498.03;4907523;28;128480;-74
2024/01/19 05:14:46;;;;;;;3.13;1.50;;;;;;;18.68;37.68;101497.13;4913960;28;127232;-74
2024/01/19 05:17:11;;;;;;;3.03;1.98;;;;;;;18.68;37.65;101503.31;4913087;28;97141;-74
2024/01/19 05:19:36;;;;;;;2.15;1.58;;;;;;;18.68;37.47;101512.97;4915325;28;104850;-74
2024/01/19 05:22:02;;;;;;;3.08;1.58;;;;;;;18.68;37.65;101507.69;4915545;28;97442;-74
2024/01/19 05:24:27;;;;;;;2.55;1.75;;;;;;;18.67;37.65;101511.25;4913642;28;99415;-74
2024/01/19 05:26:53;;;;;;;2.58;1.08;;;;;;;18.67;37.36;101525.31;4912534;28;96753;-74
2024/01/19 05:29:18;;;;;;;2.08;1.00;;;;;;;18.68;37.59;101526.19;4899298;28;99537;-73
2024/01/19 05:31:43;;;;;;;2.00;1.48;;;;;;;18.67;37.25;101527.97;4909659;28;126829;-74
2024/01/19 05:34:09;;;;;;;2.10;1.50;;;;;;;18.67;37.38;101527.97;4912130;28;126753;-73
2024/01/19 05:36:34;;;;;;;2.40;1.33;;;;;;;18.68;37.43;101539.41;4917005;28;97359;-73
2024/01/19 05:38:59;;;;;;;2.22;1.42;;;;;;;18.67;37.53;101535.03;4913103;28;96873;-73
2024/01/19 05:41:25;;;;;;;2.03;1.05;;;;;;;18.67;37.25;101542.94;4912841;28;97728;-73
2024/01/19 05:43:50;;;;;;;2.28;1.48;;;;;;;18.67;37.38;101553.53;4897456;28;98041;-73
2024/01/19 05:46:16;;;;;;;2.97;1.88;;;;;;;18.67;37.36;101551.75;4911911;28;96946;-74
2024/01/19 05:48:41;;;;;;;2.28;1.20;;;;;;;18.67;37.39;101558.81;4897000;28;97486;-73
2024/01/19 05:51:14;;;;;;;2.83;1.30;;;;;;;18.67;37.54;101593.16;4911652;28;97528;-73
2024/01/19 05:53:40;;;;;;;2.42;1.30;;;;;;;18.65;37.21;101611.66;4897671;28;98864;-73
2024/01/19 05:56:05;;;;;;;2.65;1.73;;;;;;;18.66;37.46;101616.03;4912348;28;97147;-73
2024/01/19 05:58:31;;;;;;;2.20;1.60;;;;;;;18.64;37.14;101626.66;4909710;28;96988;-73
2024/01/19 06:00:56;;;;;;;2.22;1.30;;;;;;;18.65;37.22;101624.88;4895058;28;98897;-73
2024/01/19 06:03:21;;;;;;;3.70;1.15;;;;;;;18.64;37.47;101620.47;4909604;28;99385;-73
2024/01/19 06:05:47;;;;;;;2.13;1.42;;;;;;;18.65;37.41;101601.09;4910230;28;117694;-73
2024/01/19 06:08:12;;;;;;;2.00;1.02;;;;;;;18.65;37.13;101603.75;4914356;28;97085;-73
2024/01/19 06:10:38;;;;;;;2.35;1.30;;;;;;;18.64;37.48;101601.97;4910649;28;98138;-73
2024/01/19 06:13:03;;;;;;;3.35;1.13;;;;;;;18.64;37.39;101608.16;4908944;28;97261;-73
2024/01/19 06:15:29;;;;;;;2.22;1.60;;;;;;;18.64;37.25;101615.19;4914650;28;96768;-73
2024/01/19 06:17:54;;;;;;;2.55;1.25;;;;;;;18.64;37.31;101610.78;4911299;28;97044;-74
2024/01/19 06:20:20;;;;;;;2.30;1.15;;;;;;;18.63;37.58;101609.03;4897116;28;126744;-73
2024/01/19 06:22:45;;;;;;;2.78;1.70;;;;;;;18.64;37.28;101618.72;4910848;28;97631;-73
2024/01/19 06:25:11;;;;;;;2.13;1.05;;;;;;;18.63;37.35;101611.69;4913030;28;96924;-73
2024/01/19 06:27:37;;;;;;;2.38;1.58;;;;;;;18.65;37.35;101622.22;4912999;28;96809;-73
2024/01/19 06:30:03;;;;;;;2.58;1.60;;;;;;;18.65;37.29;101632.81;4913315;28;97517;-73
2024/01/19 06:32:30;;;;;;;2.22;0.95;;;;;;;18.64;37.18;101633.69;4914769;28;98444;-73
2024/01/19 06:34:55;;;;;;;2.33;1.55;;;;;;;18.64;37.53;101638.97;4910864;28;97488;-73
2024/01/19 06:37:21;;;;;;;1.55;1.00;;;;;;;18.65;37.07;101640.72;4909188;28;97150;-73
2024/01/19 06:39:46;;;;;;;2.40;1.13;;;;;;;18.65;37.24;101643.38;4912352;28;97432;-73
2024/01/19 06:42:13;;;;;;;2.08;1.52;;;;;;;18.64;37.67;101646.88;4914046;28;97479;-73
2024/01/19 06:44:44;;;;;;;2.25;1.63;;;;;;;18.65;37.29;101659.22;4913658;28;98171;-73
2024/01/19 06:47:09;;;;;;;2.20;1.15;;;;;;;18.64;37.18;101666.28;4912646;28;97090;-73
2024/01/19 06:49:36;;;;;;;2.15;1.52;;;;;;;18.63;37.36;101667.16;4911751;28;97674;-73
2024/01/19 06:52:04;;;;;;;2.35;0.93;;;;;;;18.63;37.46;101667.16;4909392;28;97300;-73
2024/01/19 06:54:30;;;;;;;3.22;1.60;;;;;;;18.64;37.15;101671.56;4914266;28;97111;-73
2024/01/19 06:56:56;;;;;;;1.80;1.08;;;;;;;18.64;37.13;101675.97;4904417;28;97051;-73
2024/01/19 06:59:21;;;;;;;2.45;1.80;;;;;;;18.64;37.12;101678.59;4902375;28;99472;-73
2024/01/19 07:01:46;;;;;;;2.00;1.08;;;;;;;18.64;37.49;101684.78;4916306;28;97372;-73
2024/01/19 07:04:12;;;;;;;2.30;1.48;;;;;;;18.62;37.16;101675.97;4915834;28;109780;-73
2024/01/19 07:06:37;;;;;;;2.80;1.63;;;;;;;18.63;37.27;101688.31;4915551;28;109977;-73
2024/01/19 07:09:03;;;;;;;1.75;1.13;;;;;;;18.63;36.93;101695.34;4916526;28;98025;-73
2024/01/19 07:11:28;;;;;;;2.15;1.08;;;;;;;18.63;37.32;101690.94;4916733;28;100690;-73
2024/01/19 07:13:53;;;;;;;3.70;1.58;;;;;;;18.63;37.28;101704.16;4904457;28;96869;-74
2024/01/19 07:16:19;;;;;;;2.47;1.13;;;;;;;18.63;36.93;101711.22;4918937;28;97279;-73
2024/01/19 07:18:44;;;;;;;1.70;0.90;;;;;;;18.63;37.05;101714.72;4917712;28;98279;-74
2024/01/19 07:21:10;;;;;;;2.20;1.48;;;;;;;18.62;37.09;101707.66;4921282;28;126541;-73
2024/01/19 07:23:35;;;;;;;2.72;1.27;;;;;;;18.63;37.02;101717.38;4921114;28;97255;-74
2024/01/19 07:26:01;;;;;;;2.47;1.13;;;;;;;18.62;37.12;101720.88;4915314;28;96867;-73
2024/01/19 07:28:26;;;;;;;1.60;1.02;;;;;;;18.63;37.07;101730.56;4912168;28;100503;-73
2024/01/19 07:30:52;;;;;;;2.65;1.58;;;;;;;18.62;37.09;101727.94;4918896;28;107041;-73
2024/01/19 07:33:17;;;;;;;2.67;1.85;;;;;;;18.62;37.40;101726.16;4917052;28;97456;-74
2024/01/19 07:35:43;;;;;;;1.73;1.08;;;;;;;18.61;37.04;101732.34;4897451;28;97455;-73
2024/01/19 07:38:08;;;;;;;2.15;1.05;;;;;;;18.63;37.02;101738.50;4900011;28;97754;-74
2024/01/19 07:40:33;;;;;;;2.28;1.40;;;;;;;18.62;37.28;101733.22;4899795;28;97183;-74
2024/01/19 07:42:59;;;;;;;2.25;1.38;;;;;;;18.62;37.05;101741.16;4915598;28;97297;-74
2024/01/19 07:45:24;;;;;;;3.40;1.85;;;;;;;18.61;37.33;101737.66;4913826;28;116560;-73
2024/01/19 07:47:49;;;;;;;1.88;0.98;;;;;;;18.63;37.14;101748.22;4913557;28;126829;-74
2024/01/19 07:50:15;;;;;;;1.77;1.10;;;;;;;18.62;37.11;101754.38;4915926;28;96880;-74
2024/01/19 07:52:41;;;;;;;2.70;1.42;;;;;;;18.62;37.23;101751.72;4910545;28;97544;-74
2024/01/19 07:55:07;;;;;;;2.15;1.20;;;;;;;18.62;37.26;101760.50;4914564;28;97191;-73
2024/01/19 07:57:32;;;;;;;2.47;1.50;;;;;;;18.62;37.02;101754.38;4912354;28;99135;-73
2024/01/19 07:59:57;;;;;;;2.53;1.00;;;;;;;18.63;36.93;101761.41;4914057;28;102032;-74
2024/01/19 08:02:23;;;;;;;2.13;1.40;;;;;;;18.62;37.07;101762.28;4895993;28;117931;-73
2024/01/19 08:04:48;;;;;;;2.08;1.15;;;;;;;18.62;37.21;101762.28;4916695;28;97172;-73
2024/01/19 08:07:15;;;;;;;2.10;1.67;;;;;;;18.62;36.98;101762.28;4919834;28;97381;-73
2024/01/19 08:09:40;;;;;;;2.05;1.25;;;;;;;18.63;37.05;101770.22;4925270;28;102368;-73
2024/01/19 08:12:06;;;;;;;3.47;1.60;;;;;;;18.62;37.29;101770.22;4914813;28;96706;-73
2024/01/19 08:14:31;;;;;;;1.98;1.50;;;;;;;18.63;37.18;101772.00;4928257;28;97226;-73
2024/01/19 08:16:56;;;;;;;2.40;1.55;;;;;;;18.63;37.02;101777.28;4924700;28;120509;-73
2024/01/19 08:19:22;;;;;;;3.13;1.08;;;;;;;18.63;37.06;101780.78;4905550;28;96881;-73
2024/01/19 08:21:47;;;;;;;1.95;1.15;;;;;;;18.63;37.19;101787.84;4926533;28;96908;-73
2024/01/19 08:24:13;;;;;;;2.35;1.70;;;;;;;18.63;36.98;101794.00;4924038;28;114757;-73
2024/01/19 08:26:38;;;;;;;3.33;1.52;;;;;;;18.62;37.02;101797.50;4904856;28;99542;-73
2024/01/19 08:29:04;;;;;;;2.47;1.17;;;;;;;18.63;37.02;101795.78;4926779;28;96815;-72
2024/01/19 08:31:32;;;;;;;2.25;1.05;;;;;;;18.63;37.00;101787.84;4914286;28;97429;-73
2024/01/19 08:33:57;;;;;;;2.58;1.50;;;;;;;18.63;37.12;101794.00;4912368;28;97347;-73
2024/01/19 08:36:24;;;;;;;2.08;1.30;;;;;;;18.63;37.07;101794.00;4912031;28;97331;-72
2024/01/19 08:38:58;;;;;;;3.15;1.10;;;;;;;18.63;36.98;101793.13;4911470;28;96863;-72
2024/01/19 08:41:24;;;;;;;2.70;1.80;;;;;;;18.63;37.38;101804.56;4912288;28;96596;-72
2024/01/19 08:43:50;;;;;;;2.25;1.25;;;;;;;18.64;36.80;101805.44;4914010;28;96922;-73
2024/01/19 08:46:15;;;;;;;2.92;1.30;;;;;;;18.64;36.97;101811.63;4931275;28;115151;-73
2024/01/19 08:48:44;;;;;;;2.00;1.40;;;;;;;18.64;37.15;101824.81;4930997;28;102135;-72
2024/01/19 08:51:18;;;;;;;2.67;1.08;;;;;;;18.64;37.14;101813.34;4927611;28;96872;-73
2024/01/19 08:53:43;;;;;;;2.13;1.15;;;;;;;18.64;36.91;101813.34;4922316;28;97516;-73
2024/01/19 08:56:08;;;;;;;2.33;1.20;;;;;;;18.64;37.10;101819.53;4928941;28;125606;-72
2024/01/19 08:58:37;;;;;;;1.95;1.05;;;;;;;18.64;36.85;101830.13;4913227;28;126713;-73
2024/01/19 09:01:03;;;;;;;2.25;1.17;;;;;;;18.64;37.26;101839.78;4913128;28;96705;-73
2024/01/19 09:03:29;;;;;;;3.20;1.75;;;;;;;18.65;36.92;101841.56;4931128;28;97197;-73
2024/01/19 09:05:54;;;;;;;2.30;1.15;;;;;;;18.64;36.97;101840.69;4910455;28;101881;-72
2024/01/19 09:08:19;;;;;;;1.88;0.93;;;;;;;18.65;37.00;101852.13;4926922;28;97150;-73
2024/01/19 09:10:45;;;;;;;2.80;1.23;;;;;;;18.65;37.22;101846.84;4928309;28;106000;-73
2024/01/19 09:13:10;;;;;;;3.72;1.70;;;;;;;18.65;37.24;101846.84;4913715;28;98244;-73
2024/01/19 09:15:35;;;;;;;4.68;1.75;;;;;;;18.65;36.91;101852.13;4927837;28;126898;-74
2024/01/19 09:18:01;;;;;;;2.97;1.40;;;;;;;18.66;36.87;101861.78;4919861;28;98883;-73
2024/01/19 09:20:26;;;;;;;2.95;1.30;;;;;;;18.67;36.99;101857.41;4920682;28;97265;-73
2024/01/19 09:22:51;;;;;;;4.03;1.38;;;;;;;18.66;37.05;101859.16;4909720;28;110384;-73
2024/01/19 09:25:17;;;;;;;2.03;1.30;;;;;;;18.66;36.98;101872.34;4920761;28;126907;-72
2024/01/19 09:27:42;;;;;;;3.67;1.65;;;;;;;18.67;36.84;101866.19;4933636;28;97122;-73
2024/01/19 09:30:08;;;;;;;2.58;1.10;;;;;;;18.67;37.55;101876.78;4927988;28;115936;-73
2024/01/19 09:32:33;;;;;;;2.63;1.35;;;;;;;18.67;36.85;101887.34;4928027;28;97483;-74
2024/01/19 09:34:59;;;;;;;2.15;0.98;;;;;;;18.68;36.90;101893.50;4919604;28;100799;-73
2024/01/19 09:37:24;;;;;;;3.50;0.95;;;;;;;18.69;36.92;101884.69;4895368;28;126649;-73
2024/01/19 09:39:49;;;;;;;2.70;1.05;;;;;;;18.68;37.15;101897.03;4910008;28;115514;-74
2024/01/19 09:42:24;;;;;;;2.17;1.30;;;;;;;18.68;37.12;101901.41;4916759;28;98663;-73
2024/01/19 09:44:59;;;;;;;2.08;0.90;;;;;;;18.68;36.99;101898.78;4906892;28;97554;-73
2024/01/19 09:47:35;;;;;;;1.73;1.15;;;;;;;18.69;37.15;101898.78;4911262;28;97002;-73
2024/01/19 09:50:04;;;;;;;2.10;1.10;;;;;;;18.69;37.12;101900.56;4920408;28;96862;-72
2024/01/19 09:52:39;;;;;;;1.63;1.02;;;;;;;18.69;37.50;101903.19;4924845;28;96809;-73
2024/01/19 09:55:04;;;;;;;3.10;0.95;;;;;;;18.69;37.04;101917.28;4908555;28;97545;-73
2024/01/19 09:57:31;;;;;;;3.65;1.92;;;;;;;18.70;37.25;101913.75;4921253;28;98591;-73
2024/01/19 09:59:57;;;;;;;1.63;0.93;;;;;;;18.71;37.23;101915.50;4921882;28;97148;-73
2024/01/19 10:02:25;;;;;;;2.70;1.40;;;;;;;18.71;36.98;101926.06;4922652;28;96856;-73
2024/01/19 10:04:53;;;;;;;2.67;1.40;;;;;;;18.72;37.02;101929.63;4924468;28;97420;-73
2024/01/19 10:07:19;;;;;;;2.35;0.82;;;;;;;18.73;37.02;101926.06;4909357;28;97396;-73
2024/01/19 10:09:48;;;;;;;2.33;0.93;;;;;;;18.73;37.10;101923.44;4922301;28;96768;-73
2024/01/19 10:12:17;;;;;;;2.97;1.60;;;;;;;18.74;36.90;101935.78;4922273;28;96865;-74
2024/01/19 10:14:42;;;;;;;2.25;1.58;;;;;;;18.73;36.76;101932.22;4905801;28;97486;-73
2024/01/19 10:17:08;;;;;;;2.72;1.10;;;;;;;18.75;37.23;101937.50;4928530;28;97268;-73
2024/01/19 10:19:34;;;;;;;2.88;0.82;;;;;;;18.74;37.03;101939.28;4929633;28;96855;-72
2024/01/19 10:22:24;;;;;;;1.98;1.20;;;;;;;18.75;37.32;101948.09;4913412;28;96925;-73
2024/01/19 10:25:03;;;;;;;1.90;1.00;;;;;;;18.73;36.93;101945.44;4904627;28;98435;-73
2024/01/19 10:27:51;;;;;;;2.17;1.45;;;;;;;18.74;36.81;101941.06;4936333;28;96695;-73
2024/01/19 10:30:19;;;;;;;2.15;1.00;;;;;;;18.73;37.07;101948.09;4918624;28;97161;-73
2024/01/19 10:32:46;;;;;;;2.20;1.33;;;;;;;18.74;36.92;101949.84;4918806;28;98479;-73
2024/01/19 10:35:14;;;;;;;1.98;0.95;;;;;;;18.74;37.28;101944.56;4920605;28;99315;-73
2024/01/19 10:37:39;;;;;;;1.60;0.93;;;;;;;18.74;36.75;101943.69;4896382;28;99945;-73
2024/01/19 10:40:12;;;;;;;2.13;1.42;;;;;;;18.74;36.75;101941.94;4927517;28;96658;-73
2024/01/19 10:42:42;;;;;;;2.30;1.35;;;;;;;18.75;36.92;101950.72;4930301;28;97016;-74
2024/01/19 10:45:22;;;;;;;2.75;1.05;;;;;;;18.74;37.06;101941.06;4928248;28;96920;-72
2024/01/19 10:47:50;;;;;;;2.50;1.20;;;;;;;18.75;36.83;101941.06;4914802;28;98467;-72
2024/01/19 10:50:16;;;;;;;1.80;1.05;;;;;;;18.75;36.91;101949.00;4909865;28;96762;-72
2024/01/19 10:52:51;;;;;;;3.85;1.02;;;;;;;18.76;36.99;101956.00;4928819;28;97660;-73
2024/01/19 10:55:25;;;;;;;3.38;1.15;;;;;;;18.75;36.86;101956.91;4915895;28;99578;-73
2024/01/19 10:58:11;;;;;;;2.03;1.13;;;;;;;18.75;37.08;101954.28;4909237;28;99900;-71
2024/01/19 11:00:36;;;;;;;1.83;1.05;;;;;;;18.74;37.09;101956.91;4927253;28;96722;-71
2024/01/19 11:03:03;;;;;;;2.15;1.42;;;;;;;18.75;37.17;101962.19;4924379;28;97163;-72
2024/01/19 11:05:29;;;;;;;2.08;0.95;;;;;;;18.76;37.05;101958.66;4911184;28;99838;-72
2024/01/19 11:07:59;;;;;;;2.65;1.48;;;;;;;18.77;37.07;101959.53;4921421;28;97498;-72
2024/01/19 11:10:27;;;;;;;4.60;1.13;;;;;;;18.76;36.99;101955.13;4922969;28;97097;-72
2024/01/19 11:13:00;;;;;;;4.43;1.05;;;;;;;18.77;37.14;101957.78;4926160;28;97311;-71
2024/01/19 11:15:30;;;;;;;2.20;1.42;;;;;;;18.77;36.94;101952.50;4921794;28;97726;-71
2024/01/19 11:17:58;;;;;;;1.90;1.20;;;;;;;18.78;37.14;101953.38;4929519;28;97875;-72
2024/01/19 11:20:24;;;;;;;2.05;1.08;;;;;;;18.78;36.91;101954.22;4924996;28;96833;-71